^^
Your Local Weather - Clay, NY Station Historical Data
Daily Summary for May 3, 2017 Units:  English    Metric   Both
« Previous Day
Next Day »
Daily Weekly Monthly Yearly Custom
  High: Low: Average:
Temperature: 53.7 °F 39.0 °F 46.6 °F
Dew Point: 41.4 °F 31.4 °F 36.1 °F
Humidity: 86% 46% 68%
Wind Speed: 6.0mph 0.0mph 2.7mph
Wind Gust: 13.0mph - -
Wind- - WNW
Pressure: 30.20 in 29.69 in -
Precipitation: 0.01 in    
Historical Graphs
 
 
Tabular Data for May 3, 2017
Time Temperature Dew Point Pressure Wind Wind Speed Wind Gust Humidity Rainfall Rate (Hourly) solar
00:03 47.7 °F 39.8 °F 29.69 in SW 3.0 mph 3.0 mph 74% 0.00 in 0 W/m2
00:08 47.8 °F 39.9 °F 29.69 in WSW 3.0 mph 7.0 mph 74% 0.00 in 0 W/m2
00:10 47.8 °F 39.6 °F 29.69 in West 3.0 mph 6.0 mph 73% 0.00 in 0 W/m2
00:16 47.9 °F 39.3 °F 29.69 in SW 3.0 mph 6.0 mph 72% 0.00 in 0 W/m2
00:22 48.0 °F 39.4 °F 29.70 in WSW 3.0 mph 4.0 mph 72% 0.00 in 0 W/m2
00:28 48.0 °F 39.4 °F 29.70 in West 2.0 mph 4.0 mph 72% 0.00 in 0 W/m2
00:32 48.0 °F 39.4 °F 29.70 in West 2.0 mph 3.0 mph 72% 0.00 in 0 W/m2
00:38 48.1 °F 39.5 °F 29.69 in WSW 2.0 mph 3.0 mph 72% 0.00 in 0 W/m2
00:44 48.1 °F 39.1 °F 29.70 in West 2.0 mph 4.0 mph 71% 0.00 in 0 W/m2
00:50 48.1 °F 39.5 °F 29.70 in WSW 1.0 mph 1.0 mph 72% 0.00 in 0 W/m2
00:56 48.1 °F 39.5 °F 29.69 in SW 2.0 mph 4.0 mph 72% 0.00 in 0 W/m2
01:02 48.2 °F 39.2 °F 29.70 in WSW 3.0 mph 4.0 mph 71% 0.00 in 0 W/m2
01:08 48.2 °F 39.2 °F 29.70 in West 3.0 mph 4.0 mph 71% 0.00 in 0 W/m2
01:14 48.3 °F 39.3 °F 29.70 in WSW 4.0 mph 6.0 mph 71% 0.00 in 0 W/m2
01:20 48.3 °F 39.3 °F 29.70 in SW 4.0 mph 4.0 mph 71% 0.00 in 0 W/m2
01:26 48.3 °F 39.3 °F 29.70 in WSW 3.0 mph 5.0 mph 71% 0.00 in 0 W/m2
01:32 48.3 °F 39.3 °F 29.70 in SW 2.0 mph 3.0 mph 71% 0.00 in 0 W/m2
01:38 48.2 °F 39.6 °F 29.70 in NW 3.0 mph 8.0 mph 72% 0.00 in 0 W/m2
01:44 48.1 °F 39.5 °F 29.71 in West 3.0 mph 5.0 mph 72% 0.00 in 0 W/m2
01:50 48.0 °F 39.8 °F 29.71 in West 3.0 mph 3.0 mph 73% 0.00 in 0 W/m2
01:56 48.0 °F 39.8 °F 29.71 in NW 2.0 mph 5.0 mph 73% 0.00 in 0 W/m2
02:02 47.9 °F 40.0 °F 29.71 in SW 2.0 mph 3.0 mph 74% 0.00 in 0 W/m2
02:08 47.8 °F 39.9 °F 29.71 in WNW 2.0 mph 3.0 mph 74% 0.00 in 0 W/m2
02:14 47.8 °F 39.9 °F 29.71 in WSW 2.0 mph 5.0 mph 74% 0.00 in 0 W/m2
02:20 47.9 °F 40.0 °F 29.71 in SW 3.0 mph 3.0 mph 74% 0.00 in 0 W/m2
02:26 47.9 °F 40.0 °F 29.71 in West 2.0 mph 4.0 mph 74% 0.00 in 0 W/m2
02:32 47.9 °F 40.0 °F 29.71 in WSW 2.0 mph 3.0 mph 74% 0.00 in 0 W/m2
02:38 47.9 °F 40.0 °F 29.71 in West 1.0 mph 5.0 mph 74% 0.00 in 0 W/m2
02:44 48.0 °F 39.8 °F 29.71 in West 2.0 mph 4.0 mph 73% 0.00 in 0 W/m2
02:50 48.0 °F 39.8 °F 29.71 in WSW 1.0 mph 1.0 mph 73% 0.00 in 0 W/m2
02:56 48.0 °F 40.1 °F 29.71 in West 2.0 mph 4.0 mph 74% 0.00 in 0 W/m2
03:02 47.8 °F 40.3 °F 29.71 in WSW 3.0 mph 3.0 mph 75% 0.00 in 0 W/m2
03:08 47.6 °F 40.1 °F 29.71 in WSW 2.0 mph 3.0 mph 75% 0.00 in 0 W/m2
03:12 47.5 °F 40.3 °F 29.71 in WSW 2.0 mph 3.0 mph 76% 0.00 in 0 W/m2
03:18 47.5 °F 40.3 °F 29.71 in SW 2.0 mph 4.0 mph 76% 0.00 in 0 W/m2
03:24 47.4 °F 40.2 °F 29.71 in NW 2.0 mph 2.0 mph 76% 0.00 in 0 W/m2
03:30 47.4 °F 40.6 °F 29.72 in WSW 1.0 mph 1.0 mph 77% 0.00 in 0 W/m2
03:36 47.2 °F 40.4 °F 29.72 in NW 1.0 mph 2.0 mph 77% 0.00 in 0 W/m2
03:42 46.5 °F 41.0 °F 29.73 in NW 1.0 mph 2.0 mph 81% 0.00 in 0 W/m2
03:48 45.7 °F 41.1 °F 29.73 in WNW 2.0 mph 2.0 mph 84% 0.00 in 0 W/m2
03:54 45.3 °F 41.1 °F 29.73 in WSW 2.0 mph 7.0 mph 85% 0.00 in 0 W/m2
04:00 45.2 °F 41.3 °F 29.74 in WSW 2.0 mph 2.0 mph 86% 0.00 in 0 W/m2
04:06 45.2 °F 41.3 °F 29.74 in WSW 1.0 mph 2.0 mph 86% 0.00 in 0 W/m2
04:12 45.3 °F 41.4 °F 29.74 in West 1.0 mph 1.0 mph 86% 0.00 in 0 W/m2
04:18 45.5 °F 41.3 °F 29.74 in WSW 2.0 mph 5.0 mph 85% 0.00 in 0 W/m2
04:24 45.8 °F 40.6 °F 29.74 in WSW 3.0 mph 4.0 mph 82% 0.00 in 0 W/m2
04:30 46.1 °F 40.3 °F 29.74 in WSW 3.0 mph 3.0 mph 80% 0.00 in 0 W/m2
04:36 46.2 °F 40.0 °F 29.74 in WNW 3.0 mph 5.0 mph 79% 0.00 in 0 W/m2
04:42 46.2 °F 39.7 °F 29.74 in West 3.0 mph 3.0 mph 78% 0.00 in 0 W/m2
04:48 46.3 °F 39.5 °F 29.74 in WSW 4.0 mph 10.0 mph 77% 0.00 in 0 W/m2
04:54 46.2 °F 39.7 °F 29.74 in WSW 3.0 mph 4.0 mph 78% 0.00 in 0 W/m2
05:00 46.2 °F 39.4 °F 29.75 in WSW 2.0 mph 2.0 mph 77% 0.00 in 0 W/m2
05:06 46.1 °F 39.3 °F 29.75 in WSW 2.0 mph 2.0 mph 77% 0.00 in 0 W/m2
05:12 46.1 °F 39.3 °F 29.75 in West 3.0 mph 5.0 mph 77% 0.00 in 0 W/m2
05:18 46.1 °F 39.3 °F 29.76 in SW 2.0 mph 5.0 mph 77% 0.00 in 0 W/m2
05:24 46.1 °F 39.3 °F 29.76 in WSW 2.0 mph 5.0 mph 77% 0.00 in 0 W/m2
05:30 46.1 °F 39.3 °F 29.76 in NW 2.0 mph 4.0 mph 77% 0.00 in 0 W/m2
05:36 46.0 °F 39.2 °F 29.76 in WNW 2.0 mph 4.0 mph 77% 0.00 in 0 W/m2
05:42 45.8 °F 39.7 °F 29.77 in NW 2.0 mph 3.0 mph 79% 0.00 in 0 W/m2
05:48 45.2 °F 39.1 °F 29.77 in NW 3.0 mph 6.0 mph 79% 0.00 in 0 W/m2
05:54 44.7 °F 38.6 °F 29.77 in West 4.0 mph 4.0 mph 79% 0.00 in 0 W/m2
06:00 44.2 °F 38.7 °F 29.78 in WNW 4.0 mph 6.0 mph 81% 0.00 in 0 W/m2
06:06 43.8 °F 38.7 °F 29.79 in WNW 4.0 mph 6.0 mph 82% 0.00 in 0 W/m2
06:12 43.5 °F 38.4 °F 29.79 in NW 4.0 mph 4.0 mph 82% 0.00 in 5 W/m2
06:18 43.6 °F 38.5 °F 29.80 in WNW 3.0 mph 4.0 mph 82% 0.00 in 5 W/m2
06:24 43.5 °F 38.1 °F 29.80 in NW 3.0 mph 11.0 mph 81% 0.00 in 11 W/m2
06:30 43.4 °F 37.3 °F 29.80 in WSW 5.0 mph 5.0 mph 79% 0.00 in 12 W/m2
06:36 43.4 °F 37.3 °F 29.81 in West 4.0 mph 5.0 mph 79% 0.00 in 16 W/m2
06:42 43.3 °F 36.9 °F 29.81 in WNW 3.0 mph 4.0 mph 78% 0.00 in 30 W/m2
06:48 43.3 °F 36.6 °F 29.81 in SW 3.0 mph 9.0 mph 77% 0.00 in 33 W/m2
06:54 43.3 °F 36.6 °F 29.82 in NNW 4.0 mph 6.0 mph 77% 0.00 in 56 W/m2
07:00 43.4 °F 36.7 °F 29.82 in NW 3.0 mph 3.0 mph 77% 0.00 in 60 W/m2
07:06 43.5 °F 36.4 °F 29.83 in WNW 2.0 mph 3.0 mph 76% 0.00 in 70 W/m2
07:12 43.6 °F 36.5 °F 29.83 in WNW 2.0 mph 3.0 mph 76% 0.00 in 51 W/m2
07:18 43.6 °F 36.2 °F 29.83 in NW 2.0 mph 5.0 mph 75% 0.00 in 51 W/m2
07:24 43.7 °F 36.3 °F 29.84 in West 2.0 mph 5.0 mph 75% 0.00 in 60 W/m2
07:30 43.4 °F 35.7 °F 29.84 in WNW 4.0 mph 6.0 mph 74% 0.00 in 69 W/m2
07:36 43.2 °F 35.5 °F 29.84 in WNW 5.0 mph 6.0 mph 74% 0.00 in 91 W/m2
07:42 43.0 °F 35.3 °F 29.85 in WNW 5.0 mph 5.0 mph 74% 0.00 in 86 W/m2
07:48 43.0 °F 35.6 °F 29.85 in WNW 5.0 mph 6.0 mph 75% 0.00 in 91 W/m2
07:54 43.0 °F 35.3 °F 29.85 in WNW 4.0 mph 5.0 mph 74% 0.00 in 134 W/m2
08:00 43.4 °F 35.7 °F 29.85 in WNW 4.0 mph 4.0 mph 74% 0.00 in 264 W/m2
08:06 43.2 °F 34.8 °F 29.86 in WNW 4.0 mph 7.0 mph 72% 0.00 in 83 W/m2
08:12 43.0 °F 34.9 °F 29.86 in WSW 4.0 mph 4.0 mph 73% 0.00 in 93 W/m2
08:16 42.9 °F 34.5 °F 29.86 in WNW 4.0 mph 7.0 mph 72% 0.00 in 121 W/m2
08:22 43.0 °F 34.6 °F 29.87 in WNW 4.0 mph 4.0 mph 72% 0.00 in 220 W/m2
08:28 43.1 °F 35.0 °F 29.87 in WNW 4.0 mph 4.0 mph 73% 0.00 in 113 W/m2
08:34 42.8 °F 35.4 °F 29.87 in WSW 4.0 mph 6.0 mph 75% 0.00 in 271 W/m2
08:40 42.5 °F 35.8 °F 29.88 in WNW 4.0 mph 5.0 mph 77% 0.00 in 193 W/m2
08:46 42.0 °F 36.0 °F 29.88 in NW 4.0 mph 5.0 mph 79% 0.00 in 162 W/m2
08:52 41.4 °F 36.0 °F 29.89 in NW 4.0 mph 4.0 mph 81% 0.00 in 116 W/m2
08:58 41.0 °F 35.9 °F 29.89 in NW 4.0 mph 4.0 mph 82% 0.00 in 107 W/m2
09:04 40.8 °F 36.0 °F 29.90 in WNW 3.0 mph 5.0 mph 83% 0.00 in 163 W/m2
09:10 40.8 °F 36.3 °F 29.90 in West 3.0 mph 8.0 mph 84% 0.00 in 165 W/m2
09:16 40.8 °F 36.3 °F 29.90 in WNW 3.0 mph 8.0 mph 84% 0.00 in 213 W/m2
09:22 41.4 °F 36.9 °F 29.90 in NW 2.0 mph 4.0 mph 84% 0.00 in 214 W/m2
09:28 41.8 °F 37.0 °F 29.91 in West 2.0 mph 4.0 mph 83% 0.00 in 181 W/m2
09:34 41.7 °F 35.7 °F 29.91 in WSW 3.0 mph 6.0 mph 79% 0.00 in 165 W/m2
09:40 41.7 °F 35.7 °F 29.91 in WNW 4.0 mph 4.0 mph 79% 0.00 in 269 W/m2
09:46 42.0 °F 35.3 °F 29.92 in West 4.0 mph 4.0 mph 77% 0.00 in 223 W/m2
09:52 42.4 °F 35.7 °F 29.92 in WNW 3.0 mph 4.0 mph 77% 0.00 in 229 W/m2
09:58 42.6 °F 35.2 °F 29.92 in WNW 4.0 mph 9.0 mph 75% 0.00 in 267 W/m2
10:04 42.7 °F 34.6 °F 29.93 in WNW 4.0 mph 13.0 mph 73% 0.00 in 197 W/m2
10:10 42.5 °F 34.1 °F 29.93 in NW 6.0 mph 6.0 mph 72% 0.00 in 204 W/m2
10:16 42.6 °F 34.5 °F 29.94 in North 5.0 mph 6.0 mph 73% 0.00 in 258 W/m2
10:22 43.0 °F 34.9 °F 29.94 in WNW 4.0 mph 4.0 mph 73% 0.00 in 264 W/m2
10:28 43.2 °F 34.4 °F 29.94 in WNW 4.0 mph 4.0 mph 71% 0.00 in 364 W/m2
10:34 43.2 °F 34.1 °F 29.94 in WNW 4.0 mph 5.0 mph 70% 0.00 in 265 W/m2
10:40 43.5 °F 35.1 °F 29.94 in NW 4.0 mph 7.0 mph 72% 0.00 in 355 W/m2
10:46 43.8 °F 35.0 °F 29.95 in NW 5.0 mph 8.0 mph 71% 0.00 in 279 W/m2
10:52 44.2 °F 35.4 °F 29.95 in NW 3.0 mph 4.0 mph 71% 0.00 in 244 W/m2
10:58 44.1 °F 34.2 °F 29.95 in WNW 2.0 mph 6.0 mph 68% 0.00 in 276 W/m2
11:04 43.2 °F 33.7 °F 29.96 in WNW 4.0 mph 8.0 mph 69% 0.00 in 320 W/m2
11:10 43.5 °F 34.4 °F 29.96 in NNW 4.0 mph 5.0 mph 70% 0.00 in 304 W/m2
11:16 43.3 °F 34.2 °F 29.96 in NW 4.0 mph 6.0 mph 70% 0.00 in 190 W/m2
11:22 43.2 °F 34.4 °F 29.97 in NW 4.0 mph 5.0 mph 71% 0.00 in 232 W/m2
11:28 43.1 °F 34.0 °F 29.98 in NW 4.0 mph 12.0 mph 70% 0.00 in 207 W/m2
11:34 43.0 °F 34.2 °F 29.98 in WNW 4.0 mph 4.0 mph 71% 0.00 in 220 W/m2
11:40 43.2 °F 34.1 °F 29.98 in West 3.0 mph 3.0 mph 70% 0.00 in 278 W/m2
11:46 43.3 °F 34.2 °F 29.99 in NW 5.0 mph 11.0 mph 70% 0.00 in 316 W/m2
11:52 43.7 °F 34.2 °F 29.99 in NW 4.0 mph 4.0 mph 69% 0.00 in 432 W/m2
11:58 44.4 °F 34.9 °F 29.99 in WNW 4.0 mph 5.0 mph 69% 0.00 in 302 W/m2
12:04 44.3 °F 34.8 °F 30.00 in NW 4.0 mph 6.0 mph 69% 0.00 in 436 W/m2
12:10 44.5 °F 34.2 °F 30.00 in NW 5.0 mph 5.0 mph 67% 0.00 in 494 W/m2
12:16 45.4 °F 35.8 °F 30.01 in West 5.0 mph 6.0 mph 69% 0.00 in 589 W/m2
12:22 45.4 °F 34.3 °F 30.01 in NW 4.0 mph 5.0 mph 65% 0.00 in 367 W/m2
12:28 45.2 °F 34.5 °F 30.01 in West 4.0 mph 5.0 mph 66% 0.00 in 357 W/m2
12:34 44.9 °F 34.6 °F 30.02 in WNW 4.0 mph 6.0 mph 67% 0.00 in 302 W/m2
12:40 45.2 °F 35.3 °F 30.02 in WNW 3.0 mph 3.0 mph 68% 0.00 in 336 W/m2
12:46 45.8 °F 35.1 °F 30.03 in WNW 3.0 mph 8.0 mph 66% 0.00 in 483 W/m2
12:52 45.5 °F 34.8 °F 30.03 in NW 5.0 mph 6.0 mph 66% 0.00 in 383 W/m2
12:58 46.5 °F 36.1 °F 30.03 in NNW 4.0 mph 6.0 mph 67% 0.00 in 387 W/m2
13:04 46.5 °F 35.4 °F 30.03 in WNW 4.0 mph 6.0 mph 65% 0.00 in 369 W/m2
13:10 46.5 °F 35.4 °F 30.03 in WNW 4.0 mph 4.0 mph 65% 0.00 in 554 W/m2
13:14 46.9 °F 36.5 °F 30.03 in NW 4.0 mph 6.0 mph 67% 0.00 in 478 W/m2
13:20 47.1 °F 35.5 °F 30.04 in West 4.0 mph 6.0 mph 64% 0.00 in 366 W/m2
13:26 46.8 °F 35.3 °F 30.04 in WNW 4.0 mph 8.0 mph 64% 0.00 in 454 W/m2
13:32 47.2 °F 35.6 °F 30.04 in NW 3.0 mph 4.0 mph 64% 0.00 in 429 W/m2
13:38 48.3 °F 36.3 °F 30.05 in West 4.0 mph 9.0 mph 63% 0.00 in 420 W/m2
13:44 48.7 °F 37.8 °F 30.06 in WNW 5.0 mph 10.0 mph 66% 0.00 in 1114 W/m2
13:50 48.6 °F 36.6 °F 30.06 in WNW 5.0 mph 7.0 mph 63% 0.00 in 1071 W/m2
13:56 48.2 °F 36.2 °F 30.06 in NW 5.0 mph 7.0 mph 63% 0.00 in 998 W/m2
14:02 50.3 °F 39.4 °F 30.06 in NW 3.0 mph 4.0 mph 66% 0.00 in 1025 W/m2
14:08 50.0 °F 35.8 °F 30.06 in WNW 4.0 mph 6.0 mph 58% 0.00 in 1023 W/m2
14:14 49.9 °F 36.1 °F 30.06 in NW 5.0 mph 7.0 mph 59% 0.00 in 909 W/m2
14:22 50.8 °F 38.2 °F 30.07 in WNW 4.0 mph 5.0 mph 62% 0.00 in 932 W/m2
14:28 50.9 °F 38.3 °F 30.07 in WNW 4.0 mph 6.0 mph 62% 0.00 in 953 W/m2
14:34 50.3 °F 36.5 °F 30.07 in WNW 4.0 mph 7.0 mph 59% 0.00 in 944 W/m2
14:36 50.1 °F 35.4 °F 30.07 in NW 4.0 mph 7.0 mph 57% 0.00 in 944 W/m2
14:42 50.3 °F 37.8 °F 30.07 in NNW 5.0 mph 5.0 mph 62% 0.00 in 900 W/m2
14:48 50.5 °F 34.9 °F 30.07 in WNW 5.0 mph 7.0 mph 55% 0.00 in 923 W/m2
14:54 50.5 °F 37.5 °F 30.07 in NNW 5.0 mph 6.0 mph 61% 0.00 in 928 W/m2
15:00 50.4 °F 35.3 °F 30.07 in WNW 4.0 mph 7.0 mph 56% 0.00 in 879 W/m2
15:06 50.2 °F 35.5 °F 30.07 in NNW 5.0 mph 7.0 mph 57% 0.00 in 896 W/m2
15:12 50.8 °F 37.4 °F 30.07 in WNW 5.0 mph 8.0 mph 60% 0.00 in 817 W/m2
15:18 51.3 °F 36.1 °F 30.07 in NW 5.0 mph 8.0 mph 56% 0.00 in 805 W/m2
15:24 51.7 °F 36.0 °F 30.06 in WNW 4.0 mph 6.0 mph 55% 0.00 in 795 W/m2
15:30 51.9 °F 37.6 °F 30.07 in NW 5.0 mph 5.0 mph 58% 0.00 in 784 W/m2
15:36 51.4 °F 36.7 °F 30.06 in WNW 4.0 mph 5.0 mph 57% 0.00 in 766 W/m2
15:42 52.0 °F 36.8 °F 30.06 in WNW 4.0 mph 5.0 mph 56% 0.00 in 754 W/m2
15:48 51.6 °F 37.3 °F 30.06 in NW 4.0 mph 5.0 mph 58% 0.00 in 749 W/m2
15:54 52.3 °F 35.7 °F 30.06 in WNW 4.0 mph 7.0 mph 53% 0.00 in 726 W/m2
16:00 52.0 °F 35.9 °F 30.06 in West 5.0 mph 5.0 mph 54% 0.00 in 719 W/m2
16:06 52.5 °F 35.8 °F 30.06 in NW 5.0 mph 7.0 mph 53% 0.00 in 696 W/m2
16:12 52.2 °F 35.1 °F 30.06 in WNW 4.0 mph 4.0 mph 52% 0.00 in 682 W/m2
16:18 52.1 °F 36.4 °F 30.06 in NNW 5.0 mph 5.0 mph 55% 0.00 in 664 W/m2
16:24 52.5 °F 35.4 °F 30.06 in NNW 4.0 mph 5.0 mph 52% 0.00 in 650 W/m2
16:30 52.6 °F 35.0 °F 30.06 in NW 4.0 mph 4.0 mph 51% 0.00 in 631 W/m2
16:36 52.3 °F 35.2 °F 30.06 in NNW 4.0 mph 7.0 mph 52% 0.00 in 619 W/m2
16:42 52.9 °F 35.2 °F 30.06 in WSW 4.0 mph 7.0 mph 51% 0.00 in 599 W/m2
16:48 52.7 °F 34.1 °F 30.06 in NW 4.0 mph 7.0 mph 49% 0.00 in 582 W/m2
16:54 52.7 °F 33.5 °F 30.06 in NW 4.0 mph 4.0 mph 48% 0.00 in 566 W/m2
17:00 52.9 °F 34.2 °F 30.06 in WNW 4.0 mph 4.0 mph 49% 0.00 in 427 W/m2
17:06 53.1 °F 34.9 °F 30.07 in NW 4.0 mph 4.0 mph 50% 0.00 in 399 W/m2
17:12 53.3 °F 33.6 °F 30.07 in WNW 3.0 mph 4.0 mph 47% 0.00 in 517 W/m2
17:18 53.3 °F 34.6 °F 30.07 in NNW 3.0 mph 5.0 mph 49% 0.00 in 383 W/m2
17:24 53.7 °F 34.5 °F 30.07 in WNW 3.0 mph 6.0 mph 48% 0.00 in 362 W/m2
17:30 53.7 °F 33.9 °F 30.08 in WNW 3.0 mph 3.0 mph 47% 0.00 in 156 W/m2
17:36 53.0 °F 33.3 °F 30.07 in WNW 3.0 mph 5.0 mph 47% 0.00 in 116 W/m2
17:42 52.8 °F 33.6 °F 30.07 in West 4.0 mph 4.0 mph 48% 0.00 in 107 W/m2
17:48 52.4 °F 32.7 °F 30.07 in West 3.0 mph 5.0 mph 47% 0.00 in 90 W/m2
17:54 52.5 °F 33.4 °F 30.07 in West 3.0 mph 4.0 mph 48% 0.00 in 54 W/m2
18:00 52.4 °F 32.7 °F 30.06 in NW 3.0 mph 5.0 mph 47% 0.00 in 60 W/m2
18:06 52.4 °F 33.3 °F 30.06 in WNW 3.0 mph 5.0 mph 48% 0.00 in 74 W/m2
18:12 52.5 °F 32.8 °F 30.07 in SW 3.0 mph 3.0 mph 47% 0.00 in 83 W/m2
18:18 52.5 °F 32.3 °F 30.06 in West 2.0 mph 3.0 mph 46% 0.00 in 63 W/m2
18:24 52.5 °F 33.4 °F 30.06 in WNW 2.0 mph 2.0 mph 48% 0.00 in 42 W/m2
18:30 52.7 °F 33.0 °F 30.07 in WNW 1.0 mph 2.0 mph 47% 0.00 in 42 W/m2
18:36 52.6 °F 32.9 °F 30.07 in NW 2.0 mph 3.0 mph 47% 0.00 in 37 W/m2
18:42 52.3 °F 32.1 °F 30.07 in SW 3.0 mph 3.0 mph 46% 0.00 in 39 W/m2
18:48 52.2 °F 32.0 °F 30.07 in WNW 2.0 mph 3.0 mph 46% 0.00 in 33 W/m2
18:54 52.0 °F 31.8 °F 30.07 in WNW 2.0 mph 3.0 mph 46% 0.00 in 33 W/m2
19:00 51.9 °F 32.3 °F 30.07 in West 2.0 mph 3.0 mph 47% 0.00 in 35 W/m2
19:06 51.8 °F 32.2 °F 30.07 in WNW 2.0 mph 3.0 mph 47% 0.00 in 39 W/m2
19:12 51.5 °F 32.4 °F 30.07 in WNW 1.0 mph 3.0 mph 48% 0.00 in 39 W/m2
19:16 51.4 °F 31.8 °F 30.07 in NW 1.0 mph 6.0 mph 47% 0.00 in 25 W/m2
19:22 51.3 °F 31.7 °F 30.07 in NW 2.0 mph 3.0 mph 47% 0.00 in 40 W/m2
19:28 51.1 °F 32.1 °F 30.07 in NW 1.0 mph 3.0 mph 48% 0.00 in 21 W/m2
19:34 50.8 °F 32.8 °F 30.08 in NW 1.0 mph 2.0 mph 50% 0.00 in 30 W/m2
19:40 50.6 °F 33.1 °F 30.08 in Calm     51% 0.00 in 16 W/m2
19:46 50.2 °F 32.3 °F 30.09 in Calm   1.0 mph 50% 0.00 in 14 W/m2
19:52 50.0 °F 31.6 °F 30.09 in Calm     49% 0.00 in 11 W/m2
19:58 50.0 °F 31.6 °F 30.09 in Calm   2.0 mph 49% 0.00 in 7 W/m2
20:04 49.8 °F 31.4 °F 30.09 in Calm   2.0 mph 49% 0.00 in 5 W/m2
20:10 49.6 °F 32.2 °F 30.09 in Calm     51% 0.00 in 0 W/m2
20:14 49.3 °F 31.9 °F 30.09 in Calm     51% 0.00 in 0 W/m2
20:20 48.9 °F 32.0 °F 30.10 in Calm     52% 0.00 in 0 W/m2
20:26 48.4 °F 32.0 °F 30.10 in Calm     53% 0.00 in 0 W/m2
20:32 47.9 °F 32.9 °F 30.11 in Calm     56% 0.00 in 0 W/m2
20:38 47.2 °F 32.7 °F 30.12 in Calm     57% 0.00 in 0 W/m2
20:44 46.7 °F 33.1 °F 30.12 in Calm     59% 0.00 in 0 W/m2
20:50 46.4 °F 33.7 °F 30.13 in Calm     61% 0.00 in 0 W/m2
20:56 46.1 °F 33.8 °F 30.14 in Calm     62% 0.00 in 0 W/m2
21:02 45.6 °F 36.0 °F 30.14 in Calm     69% 0.00 in 0 W/m2
21:08 44.9 °F 34.6 °F 30.14 in Calm     67% 0.00 in 0 W/m2
21:14 44.5 °F 33.5 °F 30.15 in Calm     65% 0.00 in 0 W/m2
21:20 44.3 °F 32.9 °F 30.16 in Calm     64% 0.00 in 0 W/m2
21:26 44.2 °F 33.2 °F 30.16 in Calm     65% 0.00 in 0 W/m2
21:32 44.0 °F 33.4 °F 30.16 in Calm     66% 0.00 in 0 W/m2
21:38 43.6 °F 33.4 °F 30.16 in Calm     67% 0.00 in 0 W/m2
21:44 43.3 °F 33.4 °F 30.17 in Calm     68% 0.00 in 0 W/m2
21:50 43.1 °F 34.3 °F 30.17 in Calm     71% 0.00 in 0 W/m2
21:56 42.9 °F 34.8 °F 30.17 in Calm     73% 0.00 in 0 W/m2
22:02 42.5 °F 34.5 °F 30.17 in Calm     73% 0.00 in 0 W/m2
22:08 42.1 °F 34.1 °F 30.18 in Calm     73% 0.00 in 0 W/m2
22:14 41.9 °F 33.9 °F 30.18 in Calm     73% 0.00 in 0 W/m2
22:20 41.8 °F 34.1 °F 30.19 in Calm     74% 0.00 in 0 W/m2
22:26 41.9 °F 34.2 °F 30.19 in Calm     74% 0.00 in 0 W/m2
22:32 42.0 °F 34.3 °F 30.19 in Calm     74% 0.00 in 0 W/m2
22:38 42.0 °F 34.6 °F 30.18 in Calm     75% 0.00 in 0 W/m2
22:44 41.7 °F 34.4 °F 30.18 in Calm     75% 0.00 in 0 W/m2
22:50 41.5 °F 34.5 °F 30.19 in Calm     76% 0.00 in 0 W/m2
22:56 41.1 °F 34.1 °F 30.19 in Calm     76% 0.00 in 0 W/m2
23:02 40.7 °F 34.7 °F 30.19 in Calm     79% 0.00 in 0 W/m2
23:08 40.4 °F 34.4 °F 30.20 in Calm     79% 0.00 in 0 W/m2
23:14 40.1 °F 34.1 °F 30.20 in Calm     79% 0.00 in 0 W/m2
23:20 39.9 °F 33.9 °F 30.20 in Calm     79% 0.00 in 0 W/m2
23:26 39.7 °F 34.0 °F 30.20 in Calm     80% 0.00 in 0 W/m2
23:32 39.5 °F 34.2 °F 30.20 in Calm     81% 0.00 in 0 W/m2
23:38 39.3 °F 34.0 °F 30.20 in Calm     81% 0.00 in 0 W/m2
23:44 39.1 °F 34.1 °F 30.19 in Calm     82% 0.00 in 0 W/m2
23:50 39.1 °F 34.4 °F 30.19 in Calm     83% 0.00 in 0 W/m2
23:56 39.0 °F 34.0 °F 30.19 in Calm     82% 0.00 in 0 W/m2
Country Meadow, Clay, NY, USA
Compliments of Weather Underground - 2 mb